createdAt,value
2018-09-20T00:00:26.450Z,7.08
2018-09-20T00:00:57.578Z,5.75
2018-09-20T00:01:28.687Z,7.35
2018-09-20T00:01:59.865Z,9.00
2018-09-20T00:02:30.978Z,6.75
2018-09-20T00:03:02.131Z,7.80
2018-09-20T00:03:33.286Z,6.08
2018-09-20T00:04:04.466Z,6.75
2018-09-20T00:04:35.593Z,6.75
2018-09-20T00:05:06.712Z,4.85
2018-09-20T00:05:37.884Z,6.45
2018-09-20T00:06:09.018Z,7.87
2018-09-20T00:06:40.211Z,7.40
2018-09-20T00:07:11.388Z,7.78
2018-09-20T00:07:42.609Z,5.37
2018-09-20T00:08:13.795Z,6.33
2018-09-20T00:08:44.935Z,7.17
2018-09-20T00:09:16.050Z,6.10
2018-09-20T00:09:47.259Z,6.37
2018-09-20T00:10:18.380Z,5.78
2018-09-20T00:10:49.511Z,5.28
2018-09-20T00:11:20.700Z,5.33
2018-09-20T00:11:51.872Z,7.03
2018-09-20T00:12:23.005Z,5.60
2018-09-20T00:12:54.123Z,5.85
2018-09-20T00:13:25.241Z,6.12
2018-09-20T00:13:56.404Z,8.05
2018-09-20T00:14:27.531Z,7.08
2018-09-20T00:14:58.664Z,10.40
2018-09-20T00:15:29.869Z,10.78
2018-09-20T00:16:00.976Z,8.58
2018-09-20T00:16:32.191Z,6.30
2018-09-20T00:17:03.425Z,6.90
2018-09-20T00:17:34.648Z,6.85
2018-09-20T00:18:05.772Z,7.58
2018-09-20T00:18:36.925Z,7.30
2018-09-20T00:19:08.046Z,8.58
2018-09-20T00:19:39.209Z,9.00
2018-09-20T00:20:10.392Z,7.25
2018-09-20T00:20:41.514Z,8.15
2018-09-20T00:21:12.702Z,7.55
2018-09-20T00:21:43.931Z,6.55
2018-09-20T00:22:15.065Z,7.22
2018-09-20T00:22:46.173Z,7.70
2018-09-20T00:23:17.310Z,6.67
2018-09-20T00:23:48.405Z,8.35
2018-09-20T00:24:19.535Z,7.40
2018-09-20T00:24:50.691Z,6.05
2018-09-20T00:25:21.819Z,9.30
2018-09-20T00:25:53.052Z,8.85
2018-09-20T00:26:24.224Z,7.85
2018-09-20T00:26:55.459Z,9.50
2018-09-20T00:27:26.560Z,9.23
2018-09-20T00:27:57.672Z,8.25
2018-09-20T00:28:28.843Z,9.48
2018-09-20T00:28:59.961Z,9.65
2018-09-20T00:29:31.118Z,8.80
2018-09-20T00:30:02.309Z,8.78
2018-09-20T00:30:33.443Z,7.97
2018-09-20T00:31:04.549Z,9.58
2018-09-20T00:31:35.713Z,6.80
2018-09-20T00:32:06.839Z,7.85
2018-09-20T00:32:37.962Z,9.10
2018-09-20T00:33:09.099Z,7.95
2018-09-20T00:33:40.239Z,6.47
2018-09-20T00:34:11.509Z,9.90
2018-09-20T00:34:42.690Z,6.40
2018-09-20T00:35:13.853Z,10.38
2018-09-20T00:35:44.981Z,5.90
2018-09-20T00:36:16.127Z,4.95
2018-09-20T00:36:47.228Z,5.03
2018-09-20T00:37:18.398Z,8.08
2018-09-20T00:37:49.585Z,5.35
2018-09-20T00:38:20.758Z,7.05
2018-09-20T00:38:51.871Z,7.42
2018-09-20T00:39:23.045Z,7.90
2018-09-20T00:39:54.121Z,9.88
2018-09-20T00:40:25.295Z,9.58
2018-09-20T00:40:56.475Z,11.30
2018-09-20T00:41:27.613Z,10.58
2018-09-20T00:41:58.740Z,10.38
2018-09-20T00:42:29.910Z,14.47
2018-09-20T00:43:01.037Z,10.38
2018-09-20T00:43:32.217Z,10.05
2018-09-20T00:44:03.414Z,11.33
2018-09-20T00:44:34.604Z,12.50
2018-09-20T00:45:05.710Z,13.90
2018-09-20T00:45:36.820Z,15.40
2018-09-20T00:46:07.927Z,13.18
2018-09-20T00:46:39.119Z,14.75
2018-09-20T00:47:10.239Z,13.98
2018-09-20T00:47:41.343Z,15.43
2018-09-20T00:48:12.472Z,12.93
2018-09-20T00:48:43.576Z,12.60
2018-09-20T00:49:14.720Z,13.28
2018-09-20T00:49:45.832Z,15.40
2018-09-20T00:50:16.970Z,14.70
2018-09-20T00:50:48.086Z,16.62
2018-09-20T00:51:19.218Z,11.28
2018-09-20T00:51:50.365Z,12.85
2018-09-20T00:52:21.544Z,14.47
2018-09-20T00:52:52.715Z,13.15
2018-09-20T00:53:23.823Z,14.25
2018-09-20T00:53:54.936Z,17.45
2018-09-20T00:54:26.106Z,15.83
2018-09-20T00:54:57.254Z,14.38
2018-09-20T00:55:28.384Z,15.38
2018-09-20T00:55:59.545Z,17.67
2018-09-20T00:56:30.650Z,14.03
2018-09-20T00:57:01.775Z,16.20
2018-09-20T00:57:32.965Z,17.00
2018-09-20T00:58:04.141Z,16.70
2018-09-20T00:58:35.251Z,19.80
2018-09-20T00:59:06.411Z,15.50
2018-09-20T00:59:37.535Z,17.07
2018-09-20T01:00:08.681Z,14.05
2018-09-20T01:00:39.867Z,16.70
2018-09-20T01:01:11.002Z,17.52
2018-09-20T01:01:42.116Z,23.38
2018-09-20T01:02:13.228Z,15.72
2018-09-20T01:02:44.432Z,18.10
2018-09-20T01:03:15.649Z,15.68
2018-09-20T01:03:46.813Z,14.68
2018-09-20T01:04:17.915Z,20.85
2018-09-20T01:04:49.079Z,17.45
2018-09-20T01:05:20.241Z,18.37
2018-09-20T01:05:51.368Z,17.37
2018-09-20T01:06:22.558Z,14.55
2018-09-20T01:06:53.673Z,14.87
2018-09-20T01:07:24.807Z,15.00
2018-09-20T01:07:55.971Z,18.05
2018-09-20T01:08:27.098Z,14.05
2018-09-20T01:08:58.216Z,14.00
2018-09-20T01:09:29.355Z,19.45
2018-09-20T01:10:00.473Z,14.85
2018-09-20T01:10:31.589Z,11.20
2018-09-20T01:11:02.743Z,13.68
2018-09-20T01:11:33.977Z,13.45
2018-09-20T01:12:05.092Z,16.02
2018-09-20T01:12:36.199Z,13.32
2018-09-20T01:13:07.294Z,12.33
2018-09-20T01:13:38.422Z,13.70
2018-09-20T01:14:09.614Z,12.25
2018-09-20T01:14:40.720Z,11.90
2018-09-20T01:15:11.828Z,13.60
2018-09-20T01:15:42.935Z,13.08
2018-09-20T01:16:14.179Z,10.98
2018-09-20T01:16:45.318Z,14.47
2018-09-20T01:17:16.504Z,13.72
2018-09-20T01:17:47.609Z,14.00
2018-09-20T01:18:18.719Z,11.73
2018-09-20T01:18:49.853Z,11.93
2018-09-20T01:19:20.993Z,15.18
2018-09-20T01:19:52.099Z,13.40
2018-09-20T01:20:23.202Z,13.15
2018-09-20T01:20:54.307Z,14.60
2018-09-20T01:21:25.542Z,14.80
2018-09-20T01:21:56.692Z,14.53
2018-09-20T01:22:27.870Z,14.33
2018-09-20T01:22:58.995Z,13.32
2018-09-20T01:23:30.123Z,13.13
2018-09-20T01:24:01.225Z,11.40
2018-09-20T01:24:32.416Z,16.55
2018-09-20T01:25:03.546Z,15.85
2018-09-20T01:25:34.672Z,16.12
2018-09-20T01:26:05.856Z,12.03
2018-09-20T01:26:37.026Z,13.28
2018-09-20T01:27:08.164Z,15.25
2018-09-20T01:27:39.349Z,15.55
2018-09-20T01:28:10.460Z,12.95
2018-09-20T01:28:41.592Z,15.20
2018-09-20T01:29:12.701Z,10.78
2018-09-20T01:29:43.838Z,14.15
2018-09-20T01:30:14.952Z,16.15
2018-09-20T01:30:46.070Z,14.80
2018-09-20T01:31:17.176Z,18.00
2018-09-20T01:31:48.274Z,14.68
2018-09-20T01:32:19.412Z,13.75
2018-09-20T01:32:50.556Z,12.58
2018-09-20T01:33:21.776Z,13.18
2018-09-20T01:33:52.960Z,12.45
2018-09-20T01:34:24.134Z,13.45
2018-09-20T01:34:55.308Z,14.33
2018-09-20T01:35:26.513Z,13.55
2018-09-20T01:35:57.628Z,13.90
2018-09-20T01:36:28.790Z,12.98
2018-09-20T01:36:59.941Z,16.20
2018-09-20T01:37:31.169Z,15.65
2018-09-20T01:38:02.278Z,13.65
2018-09-20T01:38:33.406Z,12.63
2018-09-20T01:39:04.573Z,15.30
2018-09-20T01:39:35.692Z,11.55
2018-09-20T01:40:06.811Z,15.05
2018-09-20T01:40:37.911Z,12.60
2018-09-20T01:41:09.037Z,13.70
2018-09-20T01:41:40.145Z,15.38
2018-09-20T01:42:11.277Z,15.38
2018-09-20T01:42:42.472Z,14.38
2018-09-20T01:43:13.590Z,13.83
2018-09-20T01:43:44.760Z,13.78
2018-09-20T01:44:15.911Z,16.42
2018-09-20T01:44:47.031Z,12.70
2018-09-20T01:45:18.131Z,15.32
2018-09-20T01:45:49.300Z,14.20
2018-09-20T01:46:20.467Z,13.30
2018-09-20T01:46:51.587Z,12.73
2018-09-20T01:47:22.711Z,13.80
2018-09-20T01:47:53.935Z,13.72
2018-09-20T01:48:25.121Z,15.25
2018-09-20T01:48:56.267Z,15.90
2018-09-20T01:49:27.371Z,15.05
2018-09-20T01:49:58.540Z,12.20
2018-09-20T01:50:29.709Z,12.63
2018-09-20T01:51:00.881Z,15.30
2018-09-20T01:51:32.016Z,15.55
2018-09-20T01:52:03.191Z,13.53
2018-09-20T01:52:34.341Z,13.68
2018-09-20T01:53:05.443Z,15.80
2018-09-20T01:53:36.579Z,15.28
2018-09-20T01:54:07.711Z,18.37
2018-09-20T01:54:38.901Z,15.48
2018-09-20T01:55:10.049Z,12.50
2018-09-20T01:55:41.193Z,12.65
2018-09-20T01:56:12.393Z,12.63
2018-09-20T01:56:43.526Z,13.95
2018-09-20T01:57:14.691Z,14.05
2018-09-20T01:57:45.855Z,14.43
2018-09-20T01:58:16.967Z,12.98
2018-09-20T01:58:48.104Z,14.10
2018-09-20T01:59:19.229Z,13.03
2018-09-20T01:59:50.347Z,14.00
2018-09-20T02:00:21.466Z,15.38
2018-09-20T02:00:52.641Z,15.58
2018-09-20T02:01:23.763Z,15.35
2018-09-20T02:01:54.905Z,15.03
2018-09-20T02:02:26.015Z,14.75
2018-09-20T02:02:57.195Z,14.03
2018-09-20T02:03:28.307Z,14.07
2018-09-20T02:03:59.478Z,13.28
2018-09-20T02:04:30.611Z,14.80
2018-09-20T02:05:01.736Z,15.38
2018-09-20T02:05:32.859Z,14.55
2018-09-20T02:06:04.070Z,18.85
2018-09-20T02:06:35.281Z,15.00
2018-09-20T02:07:06.479Z,16.10
2018-09-20T02:07:37.618Z,14.15
2018-09-20T02:08:08.731Z,17.82
2018-09-20T02:08:39.848Z,16.48
2018-09-20T02:09:11.013Z,15.38
2018-09-20T02:09:42.140Z,17.48
2018-09-20T02:10:13.313Z,18.05
2018-09-20T02:10:44.432Z,15.13
2018-09-20T02:11:15.651Z,16.57
2018-09-20T02:11:46.838Z,16.60
2018-09-20T02:12:17.968Z,17.25
2018-09-20T02:12:49.090Z,15.00
2018-09-20T02:13:20.226Z,16.85
2018-09-20T02:13:51.403Z,14.58
2018-09-20T02:14:22.538Z,17.17
2018-09-20T02:14:53.659Z,16.00
2018-09-20T02:15:24.781Z,16.50
2018-09-20T02:15:55.914Z,16.45
2018-09-20T02:16:27.087Z,14.45
2018-09-20T02:16:58.236Z,14.98
2018-09-20T02:17:29.357Z,14.80
2018-09-20T02:18:00.478Z,14.83
2018-09-20T02:18:31.578Z,17.02
2018-09-20T02:19:02.811Z,17.67
2018-09-20T02:19:33.984Z,15.63
2018-09-20T02:20:05.100Z,14.03
2018-09-20T02:20:36.261Z,14.35
2018-09-20T02:21:07.488Z,14.87
2018-09-20T02:21:38.653Z,14.30
2018-09-20T02:22:09.772Z,16.30
2018-09-20T02:22:40.872Z,14.98
2018-09-20T02:23:12.077Z,14.98
2018-09-20T02:23:43.237Z,14.03
2018-09-20T02:24:14.411Z,13.22
2018-09-20T02:24:45.578Z,15.50
2018-09-20T02:25:16.817Z,13.80
2018-09-20T02:25:47.950Z,14.90
2018-09-20T02:26:19.060Z,13.40
2018-09-20T02:26:50.234Z,14.93
2018-09-20T02:27:21.416Z,13.13
2018-09-20T02:27:52.580Z,12.90
2018-09-20T02:28:23.758Z,12.73
2018-09-20T02:28:54.854Z,13.40
2018-09-20T02:29:25.983Z,16.62
2018-09-20T02:29:57.109Z,14.15
2018-09-20T02:30:28.279Z,15.70
2018-09-20T02:30:59.422Z,13.85
2018-09-20T02:31:30.528Z,14.13
2018-09-20T02:32:01.647Z,13.30
2018-09-20T02:32:32.834Z,14.05
2018-09-20T02:33:03.951Z,15.58
2018-09-20T02:33:35.174Z,14.03
2018-09-20T02:34:06.349Z,13.62
2018-09-20T02:34:37.512Z,12.70
2018-09-20T02:35:08.628Z,14.50
2018-09-20T02:35:39.762Z,14.43
2018-09-20T02:36:10.963Z,14.53
2018-09-20T02:36:42.072Z,12.90
2018-09-20T02:37:13.200Z,14.43
2018-09-20T02:37:44.337Z,13.43
2018-09-20T02:38:15.466Z,13.75
2018-09-20T02:38:46.669Z,15.18
2018-09-20T02:39:17.861Z,14.25
2018-09-20T02:39:49.004Z,13.25
2018-09-20T02:40:20.167Z,14.10
2018-09-20T02:40:51.341Z,15.10
2018-09-20T02:41:22.478Z,17.90
2018-09-20T02:41:53.643Z,14.10
2018-09-20T02:42:24.770Z,14.93
2018-09-20T02:42:55.923Z,13.15
2018-09-20T02:43:27.096Z,13.20
2018-09-20T02:43:58.246Z,13.15
2018-09-20T02:44:29.398Z,14.83
2018-09-20T02:45:00.523Z,16.20
2018-09-20T02:45:31.747Z,12.53
2018-09-20T02:46:02.914Z,12.65
2018-09-20T02:46:34.078Z,15.65
2018-09-20T02:47:05.211Z,13.10
2018-09-20T02:47:36.357Z,14.83
2018-09-20T02:48:07.510Z,14.47
2018-09-20T02:48:38.636Z,14.25
2018-09-20T02:49:09.790Z,12.68
2018-09-20T02:49:41.000Z,16.00
2018-09-20T02:50:12.185Z,14.70
2018-09-20T02:50:43.317Z,16.10
2018-09-20T02:51:14.485Z,13.70
2018-09-20T02:51:45.680Z,13.13
2018-09-20T02:52:16.793Z,13.93
2018-09-20T02:52:47.912Z,13.60
2018-09-20T02:53:19.040Z,14.05
2018-09-20T02:53:50.160Z,15.18
2018-09-20T02:54:21.331Z,15.00
2018-09-20T02:54:52.440Z,12.43
2018-09-20T02:55:23.565Z,14.43
2018-09-20T02:55:54.704Z,14.80
2018-09-20T02:56:25.880Z,13.45
2018-09-20T02:56:57.027Z,13.43
2018-09-20T02:57:28.197Z,13.38
2018-09-20T02:57:59.365Z,14.58
2018-09-20T02:58:30.476Z,13.28
2018-09-20T02:59:01.717Z,17.00
2018-09-20T02:59:32.811Z,14.80
2018-09-20T03:00:03.928Z,13.78
2018-09-20T03:00:35.105Z,15.32
2018-09-20T03:01:06.218Z,16.30
2018-09-20T03:01:37.437Z,17.00
2018-09-20T03:02:08.592Z,16.07
2018-09-20T03:02:39.734Z,14.63
2018-09-20T03:03:10.920Z,14.80
2018-09-20T03:03:42.039Z,13.28
2018-09-20T03:04:13.295Z,14.35
2018-09-20T03:04:44.418Z,16.10
2018-09-20T03:05:15.523Z,15.03
2018-09-20T03:05:46.665Z,14.85
2018-09-20T03:06:17.797Z,16.37
2018-09-20T03:06:48.922Z,14.05
2018-09-20T03:07:20.158Z,15.45
2018-09-20T03:07:51.333Z,16.55
2018-09-20T03:08:22.465Z,14.18
2018-09-20T03:08:53.598Z,16.85
2018-09-20T03:09:24.740Z,13.38
2018-09-20T03:09:55.922Z,13.88
2018-09-20T03:10:27.037Z,15.08
2018-09-20T03:10:58.140Z,14.85
2018-09-20T03:11:29.340Z,17.23
2018-09-20T03:12:00.498Z,16.60
2018-09-20T03:12:31.647Z,14.58
2018-09-20T03:13:02.774Z,16.42
2018-09-20T03:13:33.884Z,14.20
2018-09-20T03:14:04.998Z,13.72
2018-09-20T03:14:36.168Z,13.75
2018-09-20T03:15:07.315Z,14.47
2018-09-20T03:15:38.428Z,14.25
2018-09-20T03:16:09.589Z,14.03
2018-09-20T03:16:40.722Z,13.75
2018-09-20T03:17:11.840Z,15.68
2018-09-20T03:17:42.985Z,14.23
2018-09-20T03:18:14.117Z,13.50
2018-09-20T03:18:45.229Z,13.80
2018-09-20T03:19:16.462Z,14.60
2018-09-20T03:19:47.579Z,13.48
2018-09-20T03:20:18.734Z,14.18
2018-09-20T03:20:49.867Z,14.70
2018-09-20T03:21:21.039Z,13.93
2018-09-20T03:21:52.198Z,16.65
2018-09-20T03:22:23.367Z,15.13
2018-09-20T03:22:54.501Z,14.70
2018-09-20T03:23:25.730Z,15.63
2018-09-20T03:23:56.913Z,16.20
2018-09-20T03:24:28.038Z,13.90
2018-09-20T03:24:59.138Z,14.93
2018-09-20T03:25:30.311Z,14.87
2018-09-20T03:26:01.438Z,15.23
2018-09-20T03:26:32.653Z,16.67
2018-09-20T03:27:03.858Z,17.90
2018-09-20T03:27:34.977Z,14.60
2018-09-20T03:28:06.214Z,15.90
2018-09-20T03:28:37.360Z,14.70
2018-09-20T03:29:08.478Z,15.25
2018-09-20T03:29:39.614Z,14.40
2018-09-20T03:30:10.749Z,14.25
2018-09-20T03:30:41.928Z,20.30
2018-09-20T03:31:13.009Z,16.85
2018-09-20T03:31:44.264Z,15.15
2018-09-20T03:32:15.381Z,14.70
2018-09-20T03:32:46.512Z,16.95
2018-09-20T03:33:17.683Z,14.87
2018-09-20T03:33:48.827Z,15.40
2018-09-20T03:34:19.940Z,14.95
2018-09-20T03:34:51.040Z,15.53
2018-09-20T03:35:22.152Z,15.43
2018-09-20T03:35:53.295Z,15.00
2018-09-20T03:36:24.422Z,14.87
2018-09-20T03:36:55.584Z,17.05
2018-09-20T03:37:26.688Z,14.58
2018-09-20T03:37:57.858Z,15.30
2018-09-20T03:38:29.008Z,16.35
2018-09-20T03:39:00.177Z,16.93
2018-09-20T03:39:31.310Z,15.58
2018-09-20T03:40:02.428Z,15.65
2018-09-20T03:40:33.544Z,15.00
2018-09-20T03:41:04.672Z,15.00
2018-09-20T03:41:35.788Z,17.05
2018-09-20T03:42:07.014Z,15.53
2018-09-20T03:42:38.134Z,17.02
2018-09-20T03:43:09.299Z,18.20
2018-09-20T03:43:40.510Z,16.27
2018-09-20T03:44:11.635Z,15.78
2018-09-20T03:44:42.754Z,15.20
2018-09-20T03:45:13.911Z,18.60
2018-09-20T03:45:45.040Z,15.95
2018-09-20T03:46:16.193Z,16.40
2018-09-20T03:46:47.385Z,14.50
2018-09-20T03:47:18.555Z,16.20
2018-09-20T03:47:49.654Z,18.70
2018-09-20T03:48:20.817Z,15.80
2018-09-20T03:48:51.969Z,15.32
2018-09-20T03:49:23.092Z,18.07
2018-09-20T03:49:54.273Z,14.47
2018-09-20T03:50:25.454Z,15.13
2018-09-20T03:50:56.592Z,16.97
2018-09-20T03:51:27.711Z,15.43
2018-09-20T03:51:58.838Z,16.10
2018-09-20T03:52:29.994Z,15.60
2018-09-20T03:53:01.134Z,18.02
2018-09-20T03:53:32.285Z,17.27
2018-09-20T03:54:03.448Z,15.43
2018-09-20T03:54:34.567Z,16.73
2018-09-20T03:55:05.747Z,15.83
2018-09-20T03:55:36.919Z,18.73
2018-09-20T03:56:08.080Z,16.85
2018-09-20T03:56:39.226Z,17.25
2018-09-20T03:57:10.318Z,16.85
2018-09-20T03:57:41.458Z,19.73
2018-09-20T03:58:12.584Z,16.45
2018-09-20T03:58:43.759Z,16.32
2018-09-20T03:59:14.891Z,18.23
2018-09-20T03:59:46.013Z,16.75
2018-09-20T04:00:17.131Z,16.07
2018-09-20T04:00:48.305Z,17.57
2018-09-20T04:01:19.441Z,17.37
2018-09-20T04:01:50.555Z,16.85
2018-09-20T04:02:21.683Z,16.60
2018-09-20T04:02:52.826Z,17.12
2018-09-20T04:03:23.992Z,17.20
2018-09-20T04:03:55.121Z,16.45
2018-09-20T04:04:26.231Z,15.85
2018-09-20T04:04:57.351Z,16.42
2018-09-20T04:05:28.497Z,16.95
2018-09-20T04:05:59.610Z,17.73
2018-09-20T04:06:30.724Z,17.37
2018-09-20T04:07:01.912Z,16.67
2018-09-20T04:07:33.029Z,16.45
2018-09-20T04:08:04.189Z,17.27
2018-09-20T04:08:35.353Z,16.85
2018-09-20T04:09:06.551Z,19.80
2018-09-20T04:09:37.752Z,17.27
2018-09-20T04:10:08.875Z,17.65
2018-09-20T04:10:39.984Z,21.15
2018-09-20T04:11:11.162Z,18.67
2018-09-20T04:11:42.328Z,20.05
2018-09-20T04:12:13.496Z,19.87
2018-09-20T04:12:44.672Z,19.27
2018-09-20T04:13:15.836Z,22.22
2018-09-20T04:13:46.989Z,17.20
2018-09-20T04:14:18.102Z,20.85
2018-09-20T04:14:49.202Z,23.05
2018-09-20T04:15:20.346Z,17.70
2018-09-20T04:15:51.462Z,19.17
2018-09-20T04:16:22.573Z,19.02
2018-09-20T04:16:53.738Z,17.65
2018-09-20T04:17:24.861Z,17.37
2018-09-20T04:17:56.026Z,17.32
2018-09-20T04:18:27.253Z,17.23
2018-09-20T04:18:58.463Z,17.42
2018-09-20T04:19:29.688Z,18.95
2018-09-20T04:20:00.810Z,21.57
2018-09-20T04:20:31.947Z,18.55
2018-09-20T04:21:03.115Z,18.30
2018-09-20T04:21:34.260Z,18.07
2018-09-20T04:22:05.382Z,20.37
2018-09-20T04:22:36.520Z,20.12
2018-09-20T04:23:07.667Z,19.37
2018-09-20T04:23:38.817Z,18.48
2018-09-20T04:24:10.100Z,18.45
2018-09-20T04:24:41.211Z,17.55
2018-09-20T04:25:12.328Z,18.30
2018-09-20T04:25:43.435Z,19.23
2018-09-20T04:26:14.558Z,18.65
2018-09-20T04:26:45.728Z,17.30
2018-09-20T04:27:16.900Z,19.30
2018-09-20T04:27:48.004Z,21.40
2018-09-20T04:28:19.185Z,16.40
2018-09-20T04:28:50.305Z,18.40
2018-09-20T04:29:21.841Z,16.85
2018-09-20T04:29:52.962Z,19.17
2018-09-20T04:30:24.091Z,16.70
2018-09-20T04:30:55.211Z,18.37
2018-09-20T04:31:26.332Z,15.65
2018-09-20T04:31:57.492Z,16.77
2018-09-20T04:32:28.650Z,16.20
2018-09-20T04:32:59.766Z,15.23
2018-09-20T04:33:30.909Z,14.33
2018-09-20T04:34:02.096Z,14.93
2018-09-20T04:34:33.213Z,17.10
2018-09-20T04:35:04.332Z,15.58
2018-09-20T04:35:35.445Z,14.68
2018-09-20T04:36:06.691Z,16.10
2018-09-20T04:36:37.926Z,14.53
2018-09-20T04:37:09.046Z,16.62
2018-09-20T04:37:40.193Z,14.90
2018-09-20T04:38:11.369Z,13.40
2018-09-20T04:38:42.504Z,13.60
2018-09-20T04:39:13.608Z,15.18
2018-09-20T04:39:44.710Z,14.83
2018-09-20T04:40:15.877Z,14.25
2018-09-20T04:40:47.021Z,14.73
2018-09-20T04:41:18.211Z,15.08
2018-09-20T04:41:49.333Z,13.50
2018-09-20T04:42:20.435Z,13.53
2018-09-20T04:42:51.539Z,14.07
2018-09-20T04:43:22.639Z,12.75
2018-09-20T04:43:53.788Z,14.38
2018-09-20T04:44:24.917Z,13.60
2018-09-20T04:44:56.078Z,15.63
2018-09-20T04:45:27.220Z,15.58
2018-09-20T04:45:58.320Z,13.28
2018-09-20T04:46:29.447Z,12.33
2018-09-20T04:47:00.568Z,14.18
2018-09-20T04:47:31.732Z,12.65
2018-09-20T04:48:02.922Z,13.35
2018-09-20T04:48:34.144Z,12.07
2018-09-20T04:49:05.270Z,12.13
2018-09-20T04:49:36.422Z,15.13
2018-09-20T04:50:07.590Z,11.05
2018-09-20T04:50:38.807Z,11.70
2018-09-20T04:51:09.933Z,12.55
2018-09-20T04:51:41.100Z,15.08
2018-09-20T04:52:12.216Z,13.35
2018-09-20T04:52:43.341Z,13.25
2018-09-20T04:53:14.453Z,12.23
2018-09-20T04:53:45.559Z,11.63
2018-09-20T04:54:16.722Z,13.85
2018-09-20T04:54:47.843Z,14.87
2018-09-20T04:55:18.943Z,12.90
2018-09-20T04:55:50.089Z,14.25
2018-09-20T04:56:21.277Z,11.22
2018-09-20T04:56:52.411Z,14.33
2018-09-20T04:57:23.525Z,14.03
2018-09-20T04:57:54.640Z,11.25
2018-09-20T04:58:25.759Z,12.53
2018-09-20T04:58:56.971Z,11.63
2018-09-20T04:59:28.151Z,12.18
2018-09-20T04:59:59.334Z,15.50
2018-09-20T05:00:30.434Z,12.47
2018-09-20T05:01:01.545Z,12.37
2018-09-20T05:01:32.665Z,11.43
2018-09-20T05:02:03.831Z,11.90
2018-09-20T05:02:34.945Z,10.98
2018-09-20T05:03:06.111Z,12.13
2018-09-20T05:03:37.237Z,14.15
2018-09-20T05:04:08.368Z,13.75
2018-09-20T05:04:39.606Z,13.08
2018-09-20T05:05:10.739Z,11.22
2018-09-20T05:05:41.852Z,13.38
2018-09-20T05:06:12.978Z,14.58
2018-09-20T05:06:44.080Z,11.20
2018-09-20T05:07:15.196Z,10.98
2018-09-20T05:07:46.307Z,12.53
2018-09-20T05:08:17.541Z,14.55
2018-09-20T05:08:48.673Z,11.45
2018-09-20T05:09:19.818Z,11.63
2018-09-20T05:09:50.964Z,12.93
2018-09-20T05:10:22.078Z,11.53
2018-09-20T05:10:53.206Z,12.60
2018-09-20T05:11:24.387Z,13.60
2018-09-20T05:11:55.535Z,11.45
2018-09-20T05:12:26.635Z,13.80
2018-09-20T05:12:57.868Z,14.47
2018-09-20T05:13:29.044Z,13.28
2018-09-20T05:14:00.146Z,12.10
2018-09-20T05:14:31.318Z,12.65
2018-09-20T05:15:02.476Z,14.78
2018-09-20T05:15:33.599Z,11.65
2018-09-20T05:16:04.764Z,11.95
2018-09-20T05:16:35.932Z,14.58
2018-09-20T05:17:07.039Z,14.63
2018-09-20T05:17:38.212Z,12.75
2018-09-20T05:18:09.382Z,12.25
2018-09-20T05:18:40.588Z,14.63
2018-09-20T05:19:11.701Z,12.03
2018-09-20T05:19:42.847Z,11.70
2018-09-20T05:20:14.025Z,14.07
2018-09-20T05:20:45.231Z,10.58
2018-09-20T05:21:16.400Z,13.35
2018-09-20T05:21:47.547Z,10.78
2018-09-20T05:22:18.700Z,14.78
2018-09-20T05:22:49.876Z,11.68
2018-09-20T05:23:21.034Z,10.50
2018-09-20T05:23:52.174Z,15.58
2018-09-20T05:24:23.381Z,11.53
2018-09-20T05:24:54.529Z,11.70
2018-09-20T05:25:25.720Z,11.78
2018-09-20T05:25:56.896Z,14.73
2018-09-20T05:26:28.072Z,13.10
2018-09-20T05:26:59.192Z,10.23
2018-09-20T05:27:30.351Z,11.63
2018-09-20T05:28:01.486Z,18.37
2018-09-20T05:28:32.607Z,10.35
2018-09-20T05:29:03.739Z,14.25
2018-09-20T05:29:34.856Z,10.13
2018-09-20T05:30:05.972Z,10.85
2018-09-20T05:30:37.102Z,12.30
2018-09-20T05:31:08.224Z,12.63
2018-09-20T05:31:39.377Z,11.22
2018-09-20T05:32:10.550Z,15.08
2018-09-20T05:32:41.734Z,14.35
2018-09-20T05:33:12.944Z,10.88
2018-09-20T05:33:44.057Z,13.93
2018-09-20T05:34:15.220Z,13.70
2018-09-20T05:34:46.385Z,13.95
2018-09-20T05:35:17.592Z,13.30
2018-09-20T05:35:48.729Z,12.73
2018-09-20T05:36:19.923Z,13.03
2018-09-20T05:36:51.118Z,12.07
2018-09-20T05:37:22.267Z,14.10
2018-09-20T05:37:53.471Z,12.90
2018-09-20T05:38:24.630Z,11.93
2018-09-20T05:38:55.769Z,11.55
2018-09-20T05:39:26.905Z,13.60
2018-09-20T05:39:58.106Z,14.70
2018-09-20T05:40:29.214Z,16.75
2018-09-20T05:41:00.323Z,17.62
2018-09-20T05:41:31.588Z,13.70
2018-09-20T05:42:03.060Z,13.13
2018-09-20T05:42:34.243Z,14.75
2018-09-20T05:43:05.451Z,16.82
2018-09-20T05:43:36.583Z,17.60
2018-09-20T05:44:07.717Z,17.92
2018-09-20T05:44:38.845Z,12.73
2018-09-20T05:45:10.077Z,12.78
2018-09-20T05:45:41.207Z,11.88
2018-09-20T05:46:12.335Z,15.55
2018-09-20T05:46:43.706Z,15.70
2018-09-20T05:47:15.226Z,13.85
2018-09-20T05:47:46.464Z,15.48
2018-09-20T05:48:17.677Z,12.73
2018-09-20T05:48:48.816Z,13.93
2018-09-20T05:49:19.932Z,14.15
2018-09-20T05:49:51.037Z,13.25
2018-09-20T05:50:22.162Z,13.50
2018-09-20T05:50:53.417Z,12.63
2018-09-20T05:51:24.542Z,10.80
2018-09-20T05:51:55.661Z,10.55
2018-09-20T05:52:26.796Z,11.83
2018-09-20T05:52:57.985Z,11.93
2018-09-20T05:53:29.142Z,11.53
2018-09-20T05:54:00.275Z,11.40
2018-09-20T05:54:31.401Z,14.50
2018-09-20T05:55:02.520Z,10.13
2018-09-20T05:55:33.627Z,10.53
2018-09-20T05:56:04.790Z,13.13
2018-09-20T05:56:35.991Z,11.05
2018-09-20T05:57:07.141Z,10.18
2018-09-20T05:57:38.324Z,12.03
2018-09-20T05:58:09.459Z,10.98
2018-09-20T05:58:40.624Z,11.30
2018-09-20T05:59:11.768Z,10.90
2018-09-20T05:59:42.907Z,11.28
2018-09-20T06:00:14.060Z,12.00
2018-09-20T06:00:45.220Z,12.95
2018-09-20T06:01:16.468Z,12.70
2018-09-20T06:01:47.593Z,8.65
2018-09-20T06:02:18.720Z,11.03
2018-09-20T06:02:49.841Z,9.53
2018-09-20T06:03:20.964Z,7.37
2018-09-20T06:03:52.064Z,9.43
2018-09-20T06:04:23.205Z,8.23
2018-09-20T06:04:54.345Z,8.68
2018-09-20T06:05:25.461Z,12.70
2018-09-20T06:05:56.671Z,9.25
2018-09-20T06:06:27.997Z,9.25
2018-09-20T06:06:59.158Z,9.53
2018-09-20T06:07:30.279Z,7.37
2018-09-20T06:08:01.425Z,7.03
2018-09-20T06:08:32.591Z,7.47
2018-09-20T06:09:03.732Z,11.18
2018-09-20T06:09:34.917Z,9.45
2018-09-20T06:10:06.097Z,6.97
2018-09-20T06:10:37.261Z,8.58
2018-09-20T06:11:08.388Z,9.33
2018-09-20T06:11:39.531Z,7.28
2018-09-20T06:12:10.724Z,8.30
2018-09-20T06:12:41.837Z,13.15
2018-09-20T06:13:13.041Z,8.10
2018-09-20T06:13:44.204Z,8.15
2018-09-20T06:14:15.329Z,8.53
2018-09-20T06:14:46.485Z,12.35
2018-09-20T06:15:17.626Z,6.00
2018-09-20T06:15:48.735Z,6.78
2018-09-20T06:16:19.927Z,8.00
2018-09-20T06:16:51.110Z,9.73
2018-09-20T06:17:22.289Z,6.60
2018-09-20T06:17:53.415Z,7.70
2018-09-20T06:18:24.584Z,11.15
2018-09-20T06:18:55.769Z,7.60
2018-09-20T06:19:27.034Z,6.42
2018-09-20T06:19:58.204Z,6.70
2018-09-20T06:20:29.356Z,6.53
2018-09-20T06:21:00.493Z,8.98
2018-09-20T06:21:31.688Z,6.45
2018-09-20T06:22:02.797Z,10.13
2018-09-20T06:22:33.938Z,11.30
2018-09-20T06:23:05.068Z,6.47
2018-09-20T06:23:36.278Z,5.97
2018-09-20T06:24:07.510Z,8.38
2018-09-20T06:24:38.729Z,6.80
2018-09-20T06:25:09.893Z,7.97
2018-09-20T06:25:41.000Z,9.48
2018-09-20T06:26:12.111Z,8.43
2018-09-20T06:26:43.244Z,6.83
2018-09-20T06:27:14.431Z,7.15
2018-09-20T06:27:45.653Z,9.90
2018-09-20T06:28:16.766Z,8.23
2018-09-20T06:28:47.916Z,8.90
2018-09-20T06:29:19.098Z,8.83
2018-09-20T06:29:50.276Z,8.73
2018-09-20T06:30:21.492Z,15.63
2018-09-20T06:30:53.223Z,9.68
2018-09-20T06:31:24.353Z,7.40
2018-09-20T06:31:55.478Z,7.40
2018-09-20T06:32:26.631Z,11.63
2018-09-20T06:32:57.768Z,10.72
2018-09-20T06:33:28.931Z,6.50
2018-09-20T06:34:00.060Z,8.25
2018-09-20T06:34:31.190Z,7.20
2018-09-20T06:35:02.322Z,6.78
2018-09-20T06:35:33.463Z,7.22
2018-09-20T06:36:04.603Z,9.10
2018-09-20T06:36:35.740Z,6.70
2018-09-20T06:37:06.930Z,6.83
2018-09-20T06:37:38.131Z,8.85
2018-09-20T06:38:09.255Z,8.28
2018-09-20T06:38:40.416Z,9.10
2018-09-20T06:39:11.526Z,6.85
2018-09-20T06:39:42.650Z,9.40
2018-09-20T06:40:13.820Z,11.08
2018-09-20T06:40:44.967Z,9.55
2018-09-20T06:41:16.088Z,7.08
2018-09-20T06:41:47.270Z,8.68
2018-09-20T06:42:18.385Z,8.05
2018-09-20T06:42:49.565Z,9.03
2018-09-20T06:43:20.746Z,11.60
2018-09-20T06:43:51.938Z,7.90